| time (UTC) | temp C | wind direction | speed KPH | gust KPH | rain 1hr cm | rain 24hr cm | rain mn cm | humidity % | barometer mb |
| 20260506212113 | 12 | 343 | 1.6 | 1.6 | 0.00 | 0.74 | 0.74 | 95 | 1006.1 |
| 20260506211608 | 13 | 304 | 6.4 | 9.7 | 0.00 | 0.74 | 0.74 | 95 | 1005.7 |
| 20260506211106 | 13 | 311 | 4.8 | 8.0 | 0.13 | 0.74 | 0.74 | 95 | 1005.6 |
| 20260506210602 | 14 | 30 | 4.8 | 4.8 | 0.13 | 0.74 | 0.74 | 95 | 1005.6 |
| 20260506210059 | 14 | 340 | 4.8 | 8.0 | 0.48 | 0.71 | 0.71 | 95 | 1005.1 |
| 20260506205556 | 16 | 226 | 1.6 | 3.2 | 0.48 | 0.71 | 0.71 | 95 | 1005.0 |
| 20260506205051 | 16 | 225 | 0.0 | 0.0 | 0.00 | 0.64 | 0.64 | 96 | 1004.8 |
| 20260506204549 | 16 | 216 | 0.0 | 0.0 | 0.00 | 0.64 | 0.64 | 96 | 1004.6 |
| 20260506204046 | 16 | 207 | 0.0 | 0.0 | 0.00 | 0.64 | 0.64 | 96 | 1004.5 |
| 20260506203544 | 16 | 206 | 0.0 | 0.0 | 0.00 | 0.64 | 0.64 | 96 | 1004.7 |
| 20260506203040 | 16 | 207 | 0.0 | 0.0 | 0.00 | 0.64 | 0.64 | 96 | 1004.8 |
| 20260506202538 | 16 | 206 | 0.0 | 0.0 | 0.00 | 0.64 | 0.64 | 96 | 1004.8 |
| 20260506202034 | 16 | 206 | 0.0 | 0.0 | 0.00 | 0.64 | 0.64 | 96 | 1004.9 |
| 20260506201532 | 16 | 208 | 0.0 | 1.6 | 0.00 | 0.64 | 0.64 | 96 | 1004.9 |
| 20260506201028 | 16 | 209 | 0.0 | 1.6 | 0.00 | 0.64 | 0.64 | 96 | 1004.9 |
| 20260506200524 | 16 | 208 | 0.0 | 0.0 | 0.00 | 0.64 | 0.64 | 96 | 1004.6 |
| 20260506200021 | 16 | 210 | 0.0 | 0.0 | 0.00 | 0.64 | 0.64 | 96 | 1005.0 |
| 20260506195518 | 16 | 217 | 0.0 | 0.0 | 0.00 | 0.64 | 0.64 | 96 | 1004.9 |
| 20260506195014 | 16 | 211 | 0.0 | 0.0 | 0.00 | 0.64 | 0.64 | 96 | 1004.7 |
| 20260506194512 | 16 | 217 | 0.0 | 0.0 | 0.00 | 0.64 | 0.64 | 96 | 1005.3 |
| 20260506194008 | 16 | 207 | 0.0 | 0.0 | 0.00 | 0.64 | 0.64 | 96 | 1005.0 |
| 20260506193506 | 16 | 214 | 0.0 | 0.0 | 0.00 | 0.64 | 0.64 | 96 | 1005.2 |
| 20260506193003 | 16 | 211 | 0.0 | 0.0 | 0.00 | 0.64 | 0.64 | 96 | 1005.1 |
| 20260506192459 | 16 | 223 | 0.0 | 0.0 | 0.00 | 0.64 | 0.64 | 95 | 1005.2 |
| 20260506191955 | 16 | 211 | 0.0 | 0.0 | 0.00 | 0.64 | 0.64 | 95 | 1005.3 |
| 20260506191453 | 16 | 213 | 0.0 | 0.0 | 0.13 | 0.64 | 0.64 | 95 | 1005.4 |
| 20260506190949 | 16 | 215 | 0.0 | 0.0 | 0.13 | 0.64 | 0.64 | 95 | 1005.4 |
| 20260506190446 | 16 | 214 | 0.0 | 0.0 | 0.00 | 0.61 | 0.61 | 95 | 1005.5 |
| 20260506185942 | 16 | 214 | 0.0 | 1.6 | 0.00 | 0.61 | 0.61 | 95 | 1005.3 |
| 20260506185439 | 16 | 215 | 0.0 | 0.0 | 0.18 | 0.61 | 0.61 | 95 | 1005.4 |
| 20260506184936 | 16 | 219 | 0.0 | 0.0 | 0.18 | 0.61 | 0.61 | 95 | 1005.4 |
| 20260506184433 | 16 | 218 | 0.0 | 0.0 | 0.13 | 0.58 | 0.58 | 95 | 1005.5 |
| 20260506183931 | 16 | 222 | 0.0 | 0.0 | 0.13 | 0.58 | 0.58 | 95 | 1005.5 |
| 20260506183426 | 16 | 216 | 0.0 | 0.0 | 0.00 | 0.56 | 0.56 | 95 | 1005.5 |
| 20260506182923 | 16 | 214 | 0.0 | 0.0 | 0.18 | 0.56 | 0.56 | 95 | 1005.5 |
| 20260506182421 | 16 | 215 | 0.0 | 0.0 | 0.18 | 0.56 | 0.56 | 95 | 1005.5 |
| 20260506181918 | 16 | 217 | 0.0 | 0.0 | 0.00 | 0.53 | 0.53 | 95 | 1005.7 |
| 20260506181416 | 16 | 211 | 0.0 | 0.0 | 0.00 | 0.53 | 0.53 | 95 | 1005.5 |
| 20260506180912 | 16 | 221 | 0.0 | 1.6 | 0.13 | 0.53 | 0.53 | 95 | 1005.7 |
| 20260506180408 | 16 | 215 | 0.0 | 1.6 | 0.13 | 0.53 | 0.53 | 95 | 1005.9 |
| 20260506175906 | 16 | 212 | 0.0 | 0.0 | 0.00 | 0.51 | 0.51 | 95 | 1005.6 |
| 20260506175402 | 16 | 213 | 0.0 | 0.0 | 0.00 | 0.51 | 0.51 | 95 | 1005.6 |
| 20260506174859 | 16 | 213 | 0.0 | 1.6 | 0.18 | 0.51 | 0.51 | 95 | 1005.8 |
| 20260506174357 | 16 | 204 | 0.0 | 0.0 | 0.18 | 0.51 | 0.51 | 95 | 1005.7 |
| 20260506173854 | 16 | 212 | 0.0 | 0.0 | 0.00 | 0.48 | 0.48 | 95 | 1005.8 |
| 20260506173350 | 16 | 210 | 0.0 | 0.0 | 0.00 | 0.48 | 0.48 | 95 | 1005.9 |
| 20260506172847 | 16 | 210 | 0.0 | 0.0 | 0.18 | 0.48 | 0.48 | 95 | 1005.9 |
| 20260506172344 | 16 | 214 | 0.0 | 0.0 | 0.18 | 0.48 | 0.48 | 95 | 1005.8 |
| 20260506171842 | 15 | 220 | 0.0 | 0.0 | 0.00 | 0.46 | 0.46 | 95 | 1005.7 |
| 20260506171338 | 15 | 215 | 0.0 | 0.0 | 0.00 | 0.46 | 0.46 | 95 | 1005.8 |
| 20260506170836 | 15 | 213 | 0.0 | 0.0 | 0.13 | 0.46 | 0.46 | 95 | 1005.6 |
| 20260506170331 | 15 | 201 | 1.6 | 1.6 | 0.13 | 0.46 | 0.46 | 95 | 1005.8 |
| 20260506165826 | 15 | 206 | 0.0 | 0.0 | 0.00 | 0.43 | 0.43 | 95 | 1006.0 |
| 20260506165323 | 15 | 210 | 0.0 | 0.0 | 0.00 | 0.43 | 0.43 | 95 | 1005.9 |
| 20260506164819 | 15 | 211 | 0.0 | 0.0 | 0.18 | 0.43 | 0.43 | 95 | 1006.1 |
| 20260506164316 | 15 | 211 | 0.0 | 0.0 | 0.00 | 0.41 | 0.41 | 94 | 1006.3 |
| 20260506163813 | 15 | 211 | 0.0 | 0.0 | 0.13 | 0.41 | 0.41 | 94 | 1006.2 |
| 20260506163308 | 14 | 211 | 0.0 | 0.0 | 0.30 | 0.41 | 0.41 | 94 | 1006.5 |
| 20260506162804 | 14 | 213 | 0.0 | 0.0 | 0.18 | 0.38 | 0.38 | 94 | 1006.4 |
| 20260506162306 | 14 | 213 | 0.0 | 0.0 | 0.00 | 0.36 | 0.36 | 94 | 1006.8 |
| 20260506161759 | 14 | 213 | 0.0 | 0.0 | 0.13 | 0.36 | 0.36 | 94 | 1006.9 |
| 20260506161256 | 14 | 213 | 0.0 | 0.0 | 0.18 | 0.33 | 0.33 | 94 | 1006.6 |
| 20260506160754 | 13 | 208 | 0.0 | 0.0 | 0.18 | 0.33 | 0.33 | 94 | 1006.6 |
| 20260506160250 | 13 | 204 | 0.0 | 0.0 | 0.00 | 0.30 | 0.30 | 94 | 1006.7 |
| 20260506155749 | 13 | 214 | 0.0 | 0.0 | 0.13 | 0.30 | 0.30 | 93 | 1007.0 |
| 20260506155245 | 13 | 214 | 0.0 | 0.0 | 0.00 | 0.28 | 0.28 | 93 | 1007.0 |
| 20260506153358 | 13 | 220 | 0.0 | 0.0 | 0.13 | 0.25 | 0.25 | 93 | 1007.3 |
| 20260506152855 | 13 | 220 | 0.0 | 0.0 | 0.13 | 0.25 | 0.25 | 93 | 1007.4 |
| 20260506152352 | 13 | 214 | 0.0 | 0.0 | 0.18 | 0.23 | 0.23 | 93 | 1007.4 |
| 20260506151851 | 13 | 214 | 0.0 | 0.0 | 0.18 | 0.23 | 0.23 | 93 | 1007.5 |
| 20260506151347 | 13 | 215 | 0.0 | 0.0 | 0.13 | 0.20 | 0.20 | 92 | 1007.5 |
| 20260506150845 | 13 | 213 | 0.0 | 0.0 | 0.18 | 0.18 | 0.18 | 92 | 1007.4 |
| 20260506150341 | 13 | 217 | 0.0 | 0.0 | 0.18 | 0.18 | 0.18 | 92 | 1007.5 |
| 20260506145838 | 13 | 215 | 0.0 | 0.0 | 0.18 | 0.15 | 0.15 | 92 | 1007.6 |
| 20260506145334 | 13 | 219 | 0.0 | 0.0 | 0.18 | 0.15 | 0.15 | 92 | 1007.7 |
| 20260506144832 | 13 | 215 | 0.0 | 0.0 | 0.13 | 0.13 | 0.13 | 92 | 1007.8 |
| 20260506144328 | 13 | 215 | 0.0 | 0.0 | 0.30 | 0.13 | 0.13 | 92 | 1008.0 |
| 20260506143827 | 13 | 215 | 0.0 | 0.0 | 0.30 | 0.10 | 0.10 | 92 | 1007.7 |
| 20260506143323 | 13 | 213 | 0.0 | 0.0 | 0.13 | 0.08 | 0.08 | 92 | 1008.0 |
| 20260506142822 | 13 | 218 | 0.0 | 0.0 | 0.18 | 0.05 | 0.05 | 92 | 1008.2 |
| 20260506142319 | 13 | 212 | 0.0 | 0.0 | 0.18 | 0.05 | 0.05 | 91 | 1008.2 |
| 20260506141818 | 13 | 213 | 0.0 | 0.0 | 0.13 | 0.03 | 0.03 | 91 | 1008.1 |
| 20260506141315 | 13 | 209 | 0.0 | 0.0 | 0.00 | 0.00 | 0.00 | 91 | 1008.1 |
| 20260506140813 | 13 | 211 | 0.0 | 0.0 | 0.00 | 0.00 | 0.00 | 91 | 1008.2 |
| 20260506140309 | 13 | 210 | 0.0 | 0.0 | 0.00 | 0.00 | 0.00 | 90 | 1008.0 |
| 20260506135807 | 13 | 210 | 0.0 | 0.0 | 0.00 | 0.00 | 0.00 | 90 | 1008.0 |
| 20260506135305 | 13 | 210 | 0.0 | 0.0 | 0.00 | 0.00 | 0.00 | 90 | 1008.2 |
| 20260506134800 | 13 | 210 | 0.0 | 0.0 | 0.00 | 0.00 | 0.00 | 90 | 1008.0 |
| 20260506134256 | 13 | 210 | 0.0 | 0.0 | 0.00 | 0.00 | 0.00 | 89 | 1008.0 |
| 20260506133753 | 13 | 210 | 0.0 | 0.0 | 0.00 | 0.00 | 0.00 | 89 | 1007.8 |
| 20260506133250 | 13 | 210 | 0.0 | 0.0 | 0.00 | 0.00 | 0.00 | 89 | 1008.0 |
| 20260506132746 | 13 | 210 | 0.0 | 0.0 | 0.00 | 0.00 | 0.00 | 89 | 1007.7 |
| 20260506132244 | 13 | 211 | 0.0 | 0.0 | 0.00 | 0.00 | 0.00 | 89 | 1007.7 |
| 20260506131742 | 13 | 227 | 0.0 | 0.0 | 0.00 | 0.00 | 0.00 | 88 | 1007.8 |
| 20260506131237 | 13 | 216 | 0.0 | 0.0 | 0.00 | 0.00 | 0.00 | 88 | 1007.6 |
| 20260506130734 | 13 | 207 | 0.0 | 0.0 | 0.00 | 0.00 | 0.00 | 88 | 1007.7 |
| 20260506130231 | 13 | 221 | 0.0 | 0.0 | 0.00 | 0.00 | 0.00 | 88 | 1008.0 |
| 20260506125730 | 13 | 213 | 0.0 | 0.0 | 0.00 | 0.00 | 0.00 | 88 | 1008.0 |
| 20260506125227 | 13 | 227 | 0.0 | 1.6 | 0.00 | 0.00 | 0.00 | 88 | 1007.8 |
| 20260506124725 | 13 | 224 | 0.0 | 0.0 | 0.00 | 0.00 | 0.00 | 88 | 1007.8 |
| 20260506124223 | 13 | 224 | 0.0 | 0.0 | 0.00 | 0.00 | 0.00 | 88 | 1008.0 |
| 20260506123720 | 13 | 224 | 0.0 | 0.0 | 0.00 | 0.00 | 0.00 | 88 | 1007.8 |
| 20260506123219 | 13 | 224 | 0.0 | 0.0 | 0.00 | 0.00 | 0.00 | 88 | 1008.1 |
| 20260506122715 | 13 | 224 | 0.0 | 0.0 | 0.00 | 0.00 | 0.00 | 88 | 1008.4 |
| 20260506122212 | 13 | 224 | 0.0 | 0.0 | 0.00 | 0.00 | 0.00 | 87 | 1008.7 |
| 20260506121710 | 13 | 224 | 0.0 | 0.0 | 0.00 | 0.00 | 0.00 | 87 | 1008.8 |
| 20260506121206 | 13 | 224 | 0.0 | 0.0 | 0.00 | 0.00 | 0.00 | 87 | 1008.7 |
| 20260506120704 | 13 | 227 | 0.0 | 0.0 | 0.00 | 0.00 | 0.00 | 87 | 1008.6 |
| 20260506120202 | 13 | 219 | 0.0 | 0.0 | 0.00 | 0.00 | 0.00 | 88 | 1008.8 |
| 20260506115700 | 13 | 221 | 0.0 | 0.0 | 0.00 | 0.00 | 0.00 | 88 | 1008.5 |
| 20260506115158 | 13 | 223 | 0.0 | 0.0 | 0.00 | 0.00 | 0.00 | 88 | 1008.8 |
| 20260506114654 | 13 | 223 | 0.0 | 0.0 | 0.00 | 0.00 | 0.00 | 88 | 1008.7 |
| 20260506114152 | 13 | 223 | 0.0 | 0.0 | 0.00 | 0.00 | 0.00 | 88 | 1008.5 |
| 20260506113651 | 13 | 223 | 0.0 | 0.0 | 0.00 | 0.00 | 0.00 | 88 | 1008.1 |
| 20260506113148 | 13 | 223 | 0.0 | 0.0 | 0.00 | 0.00 | 0.00 | 88 | 1008.0 |
| 20260506112643 | 13 | 219 | 0.0 | 0.0 | 0.00 | 0.00 | 0.00 | 88 | 1008.0 |
| 20260506112142 | 13 | 218 | 0.0 | 0.0 | 0.00 | 0.00 | 0.00 | 88 | 1008.1 |
| 20260506111639 | 13 | 218 | 0.0 | 0.0 | 0.00 | 0.00 | 0.00 | 88 | 1008.1 |
| 20260506111137 | 13 | 218 | 0.0 | 0.0 | 0.00 | 0.00 | 0.00 | 88 | 1008.5 |
| 20260506110634 | 12 | 218 | 0.0 | 0.0 | 0.00 | 0.00 | 0.00 | 88 | 1007.3 |
| 20260506110131 | 12 | 232 | 0.0 | 0.0 | 0.00 | 0.00 | 0.00 | 88 | 1007.9 |
| 20260506105627 | 12 | 231 | 0.0 | 0.0 | 0.00 | 0.00 | 0.00 | 88 | 1008.1 |
| 20260506105125 | 12 | 231 | 0.0 | 0.0 | 0.00 | 0.00 | 0.00 | 88 | 1008.2 |
| 20260506104623 | 12 | 231 | 0.0 | 0.0 | 0.00 | 0.00 | 0.00 | 88 | 1008.2 |
| 20260506104120 | 12 | 231 | 0.0 | 0.0 | 0.00 | 0.00 | 0.00 | 88 | 1008.1 |
| 20260506103617 | 12 | 231 | 0.0 | 0.0 | 0.00 | 0.00 | 0.00 | 88 | 1008.0 |
| 20260506103114 | 12 | 231 | 0.0 | 0.0 | 0.00 | 0.00 | 0.00 | 88 | 1008.1 |
| 20260506102612 | 12 | 231 | 0.0 | 0.0 | 0.00 | 0.00 | 0.00 | 88 | 1007.5 |
| 20260506102109 | 12 | 231 | 0.0 | 0.0 | 0.00 | 0.00 | 0.00 | 87 | 1007.7 |
| 20260506101606 | 12 | 231 | 0.0 | 0.0 | 0.00 | 0.00 | 0.00 | 87 | 1007.7 |
| 20260506101103 | 12 | 231 | 0.0 | 0.0 | 0.00 | 0.00 | 0.00 | 87 | 1007.8 |
| 20260506100601 | 12 | 232 | 0.0 | 1.6 | 0.00 | 0.00 | 0.00 | 87 | 1008.1 |
| 20260506100059 | 12 | 231 | 0.0 | 0.0 | 0.00 | 0.00 | 0.00 | 86 | 1007.5 |
| 20260506095557 | 12 | 231 | 0.0 | 0.0 | 0.00 | 0.00 | 0.00 | 86 | 1007.4 |
| 20260506095053 | 12 | 231 | 0.0 | 0.0 | 0.00 | 0.00 | 0.00 | 86 | 1007.7 |
| 20260506094551 | 12 | 231 | 0.0 | 0.0 | 0.00 | 0.00 | 0.00 | 86 | 1007.5 |
| 20260506094049 | 12 | 231 | 0.0 | 0.0 | 0.00 | 0.00 | 0.00 | 85 | 1007.4 |
| 20260506093547 | 12 | 231 | 0.0 | 0.0 | 0.00 | 0.00 | 0.00 | 84 | 1007.5 |
| 20260506093044 | 12 | 231 | 0.0 | 0.0 | 0.00 | 0.00 | 0.00 | 84 | 1007.6 |
| 20260506092542 | 12 | 230 | 0.0 | 1.6 | 0.00 | 0.00 | 0.00 | 85 | 1007.7 |
| 20260506092038 | 12 | 228 | 0.0 | 0.0 | 0.00 | 0.00 | 0.00 | 84 | 1007.6 |
| 20260506091537 | 12 | 228 | 0.0 | 0.0 | 0.00 | 0.00 | 0.00 | 84 | 1007.7 |
| 20260506091034 | 12 | 228 | 0.0 | 0.0 | 0.00 | 0.00 | 0.00 | 83 | 1007.6 |
| 20260506090532 | 12 | 227 | 0.0 | 0.0 | 0.00 | 0.00 | 0.00 | 84 | 1007.9 |
| 20260506090028 | 12 | 225 | 0.0 | 0.0 | 0.00 | 0.00 | 0.00 | 83 | 1007.7 |
| 20260506085525 | 12 | 225 | 0.0 | 0.0 | 0.00 | 0.00 | 0.00 | 83 | 1007.6 |
| 20260506085021 | 13 | 225 | 0.0 | 0.0 | 0.00 | 0.00 | 0.00 | 83 | 1007.8 |
| 20260506084518 | 13 | 225 | 0.0 | 0.0 | 0.00 | 0.00 | 0.00 | 82 | 1007.8 |
| 20260506084014 | 13 | 225 | 0.0 | 0.0 | 0.00 | 0.00 | 0.00 | 82 | 1007.8 |
| 20260506083512 | 13 | 224 | 0.0 | 0.0 | 0.00 | 0.00 | 0.00 | 82 | 1007.8 |
| 20260506083009 | 13 | 225 | 0.0 | 0.0 | 0.00 | 0.00 | 0.00 | 81 | 1008.0 |
| 20260506082506 | 13 | 239 | 0.0 | 1.6 | 0.00 | 0.00 | 0.00 | 81 | 1008.2 |
| 20260506082001 | 13 | 231 | 0.0 | 0.0 | 0.00 | 0.00 | 0.00 | 81 | 1008.1 |
| 20260506081500 | 13 | 221 | 0.0 | 0.0 | 0.00 | 0.00 | 0.00 | 81 | 1008.1 |
| 20260506080957 | 13 | 224 | 0.0 | 0.0 | 0.00 | 0.00 | 0.00 | 81 | 1008.2 |
| 20260506080454 | 13 | 228 | 0.0 | 0.0 | 0.00 | 0.00 | 0.00 | 81 | 1008.3 |
| 20260506073437 | 13 | 226 | 0.0 | 0.0 | 0.00 | 0.00 | 0.00 | 84 | 1008.6 |
| 20260506072935 | 13 | 226 | 0.0 | 0.0 | 0.00 | 0.00 | 0.00 | 83 | 1008.8 |
| 20260506072432 | 13 | 226 | 0.0 | 0.0 | 0.00 | 0.00 | 0.00 | 82 | 1008.5 |
| 20260506071930 | 13 | 226 | 0.0 | 0.0 | 0.00 | 0.00 | 0.00 | 81 | 1008.8 |
| 20260506071427 | 13 | 226 | 0.0 | 0.0 | 0.00 | 0.00 | 0.00 | 81 | 1008.8 |
| 20260506070924 | 13 | 226 | 0.0 | 0.0 | 0.00 | 0.00 | 0.00 | 80 | 1008.8 |
| 20260506070421 | 13 | 226 | 0.0 | 0.0 | 0.00 | 0.00 | 0.00 | 80 | 1008.6 |
| 20260506062358 | 14 | 208 | 1.6 | 1.6 | 0.00 | 0.00 | 0.00 | 80 | 1009.0 |
| 20260506061854 | 14 | 204 | 1.6 | 1.6 | 0.00 | 0.00 | 0.00 | 81 | 1009.2 |
| 20260506061351 | 14 | 226 | 0.0 | 0.0 | 0.00 | 0.00 | 0.00 | 81 | 1009.2 |
| 20260506060849 | 14 | 192 | 1.6 | 1.6 | 0.00 | 0.00 | 0.00 | 81 | 1009.0 |
| 20260506060347 | 13 | 178 | 1.6 | 1.6 | 0.00 | 0.00 | 0.00 | 82 | 1009.2 |
| 20260506051319 | 15 | 223 | 0.0 | 0.0 | 0.00 | 0.00 | 0.00 | 83 | 1009.2 |
| 20260506050816 | 15 | 223 | 0.0 | 0.0 | 0.00 | 0.00 | 0.00 | 84 | 1009.3 |
| 20260506050314 | 15 | 222 | 0.0 | 0.0 | 0.00 | 0.00 | 0.00 | 83 | 1009.1 |
| 20260506044804 | 15 | 223 | 0.0 | 0.0 | 0.00 | 0.00 | 0.00 | 81 | 1009.4 |
| 20260506044302 | 15 | 222 | 0.0 | 0.0 | 0.00 | 0.00 | 0.00 | 80 | 1009.2 |
| 20260506043759 | 15 | 222 | 0.0 | 0.0 | 0.00 | 0.00 | 0.00 | 80 | 1009.2 |
| 20260506043256 | 15 | 222 | 0.0 | 0.0 | 0.00 | 0.00 | 0.00 | 79 | 1009.2 |
| 20260506042755 | 15 | 230 | 0.0 | 0.0 | 0.00 | 0.00 | 0.00 | 79 | 1008.9 |
| 20260506042253 | 15 | 228 | 0.0 | 0.0 | 0.00 | 0.00 | 0.00 | 79 | 1009.3 |
| 20260506041751 | 15 | 224 | 0.0 | 0.0 | 0.00 | 0.00 | 0.00 | 80 | 1009.4 |
| 20260506041248 | 15 | 230 | 0.0 | 1.6 | 0.00 | 0.00 | 0.00 | 80 | 1009.3 |
| 20260506040745 | 15 | 221 | 0.0 | 0.0 | 0.00 | 0.00 | 0.00 | 80 | 1009.0 |
| 20260506040242 | 15 | 221 | 0.0 | 0.0 | 0.00 | 0.00 | 0.00 | 79 | 1009.1 |
| 20260506035739 | 16 | 225 | 0.0 | 0.0 | 0.00 | 0.05 | 0.05 | 79 | 1008.7 |
| 20260506035236 | 15 | 214 | 0.0 | 0.0 | 0.00 | 0.05 | 0.05 | 80 | 1009.0 |
| 20260506034733 | 16 | 219 | 0.0 | 1.6 | 0.00 | 0.05 | 0.05 | 81 | 1008.8 |
| 20260506034230 | 16 | 42 | 0.0 | 1.6 | 0.00 | 0.05 | 0.05 | 81 | 1008.7 |
| 20260506033727 | 16 | 231 | 1.6 | 1.6 | 0.00 | 0.05 | 0.05 | 84 | 1008.8 |
| 20260506033224 | 16 | 254 | 3.2 | 4.8 | 0.00 | 0.05 | 0.05 | 87 | 1008.6 |
| 20260506032721 | 16 | 227 | 0.0 | 0.0 | 0.00 | 0.05 | 0.05 | 89 | 1008.5 |
| 20260506032218 | 16 | 251 | 1.6 | 3.2 | 0.18 | 0.05 | 0.05 | 90 | 1008.4 |
| 20260506031714 | 16 | 232 | 1.6 | 1.6 | 0.18 | 0.05 | 0.05 | 90 | 1008.4 |
| 20260506031212 | 16 | 220 | 0.0 | 0.0 | 0.00 | 0.03 | 0.03 | 91 | 1008.5 |
| 20260506030710 | 16 | 224 | 0.0 | 0.0 | 0.00 | 0.03 | 0.03 | 91 | 1008.3 |
| 20260506030207 | 16 | 245 | 0.0 | 0.0 | 0.00 | 0.03 | 0.03 | 90 | 1008.4 |
| 20260506025704 | 16 | 214 | 0.0 | 0.0 | 0.00 | 0.03 | 0.03 | 90 | 1008.5 |
| 20260506025200 | 17 | 206 | 0.0 | 0.0 | 0.00 | 0.03 | 0.03 | 90 | 1008.7 |
| 20260506024657 | 17 | 220 | 1.6 | 1.6 | 0.00 | 0.03 | 0.03 | 90 | 1008.9 |
| 20260506024154 | 17 | 225 | 0.0 | 0.0 | 0.00 | 0.03 | 0.03 | 89 | 1008.4 |
| 20260506023650 | 17 | 224 | 0.0 | 0.0 | 0.00 | 0.03 | 0.03 | 89 | 1008.3 |
| 20260506023147 | 17 | 224 | 0.0 | 0.0 | 0.00 | 0.03 | 0.03 | 88 | 1008.2 |
| 20260506022644 | 17 | 223 | 0.0 | 0.0 | 0.00 | 0.03 | 0.03 | 88 | 1008.1 |
| 20260506022142 | 17 | 223 | 0.0 | 0.0 | 0.00 | 0.03 | 0.03 | 88 | 1008.0 |
| 20260506021640 | 17 | 223 | 0.0 | 0.0 | 0.00 | 0.03 | 0.03 | 87 | 1008.2 |
| 20260506021136 | 17 | 220 | 0.0 | 0.0 | 0.00 | 0.03 | 0.03 | 87 | 1007.8 |
| 20260506020634 | 17 | 220 | 0.0 | 0.0 | 0.00 | 0.03 | 0.03 | 86 | 1007.8 |
| 20260506020131 | 17 | 214 | 0.0 | 0.0 | 0.00 | 0.03 | 0.03 | 85 | 1007.9 |
| 20260506015629 | 17 | 213 | 0.0 | 0.0 | 0.00 | 0.03 | 0.03 | 85 | 1007.8 |
| 20260506015125 | 17 | 213 | 0.0 | 0.0 | 0.00 | 0.03 | 0.03 | 84 | 1008.1 |
| 20260506014623 | 17 | 213 | 0.0 | 0.0 | 0.00 | 0.03 | 0.03 | 84 | 1007.9 |
| 20260506014118 | 17 | 213 | 0.0 | 0.0 | 0.00 | 0.03 | 0.03 | 84 | 1007.8 |
| 20260506013617 | 17 | 213 | 0.0 | 0.0 | 0.00 | 0.03 | 0.03 | 84 | 1008.0 |
| 20260506013113 | 17 | 213 | 0.0 | 0.0 | 0.00 | 0.03 | 0.03 | 84 | 1007.5 |
| 20260506012610 | 17 | 213 | 0.0 | 0.0 | 0.00 | 0.03 | 0.03 | 83 | 1007.7 |
| 20260506012106 | 17 | 213 | 0.0 | 0.0 | 0.00 | 0.03 | 0.03 | 83 | 1007.7 |
| 20260506011604 | 17 | 214 | 0.0 | 0.0 | 0.00 | 0.03 | 0.03 | 82 | 1007.6 |
| 20260506011059 | 17 | 213 | 0.0 | 0.0 | 0.00 | 0.03 | 0.03 | 82 | 1007.4 |
| 20260506010554 | 18 | 213 | 0.0 | 0.0 | 0.00 | 0.03 | 0.03 | 82 | 1007.3 |
| 20260506010050 | 18 | 213 | 0.0 | 0.0 | 0.00 | 0.03 | 0.03 | 82 | 1007.6 |
| 20260506005547 | 18 | 212 | 0.0 | 0.0 | 0.00 | 0.03 | 0.03 | 83 | 1007.6 |
| 20260506005043 | 18 | 227 | 0.0 | 0.0 | 0.00 | 0.03 | 0.03 | 82 | 1007.4 |
| 20260506004541 | 18 | 227 | 0.0 | 0.0 | 0.00 | 0.03 | 0.03 | 82 | 1007.5 |
| 20260506004037 | 18 | 236 | 0.0 | 1.6 | 0.00 | 0.03 | 0.03 | 83 | 1007.4 |
| 20260506003534 | 18 | 219 | 0.0 | 0.0 | 0.00 | 0.03 | 0.03 | 83 | 1007.2 |
| 20260506003030 | 18 | 227 | 0.0 | 0.0 | 0.00 | 0.03 | 0.03 | 83 | 1007.1 |
| 20260506002526 | 18 | 226 | 0.0 | 0.0 | 0.00 | 0.03 | 0.03 | 83 | 1007.1 |
| 20260506002022 | 18 | 217 | 0.0 | 0.0 | 0.00 | 0.03 | 0.03 | 82 | 1006.9 |
| 20260506001518 | 18 | 217 | 0.0 | 0.0 | 0.00 | 0.03 | 0.03 | 81 | 1006.6 |
| 20260506001016 | 18 | 217 | 0.0 | 0.0 | 0.00 | 0.03 | 0.03 | 81 | 1006.7 |
| 20260506000513 | 18 | 217 | 0.0 | 0.0 | 0.00 | 0.03 | 0.03 | 80 | 1006.6 |
| 20260506000010 | 18 | 217 | 0.0 | 0.0 | 0.00 | 0.03 | 0.03 | 80 | 1006.6 |
| 20260505235508 | 18 | 217 | 0.0 | 0.0 | 0.00 | 0.03 | 0.03 | 80 | 1006.6 |
| 20260505235004 | 18 | 217 | 0.0 | 0.0 | 0.00 | 0.03 | 0.03 | 79 | 1006.4 |
| 20260505234502 | 18 | 196 | 1.6 | 1.6 | 0.00 | 0.03 | 0.03 | 79 | 1006.4 |
| 20260505233958 | 18 | 206 | 0.0 | 0.0 | 0.00 | 0.03 | 0.03 | 78 | 1006.3 |
| 20260505233456 | 18 | 206 | 0.0 | 0.0 | 0.00 | 0.03 | 0.03 | 78 | 1006.4 |
| 20260505232953 | 18 | 206 | 0.0 | 0.0 | 0.00 | 0.03 | 0.03 | 77 | 1006.1 |
| 20260505232451 | 18 | 206 | 0.0 | 0.0 | 0.00 | 0.03 | 0.03 | 76 | 1006.1 |
| 20260505231948 | 18 | 206 | 0.0 | 0.0 | 0.00 | 0.03 | 0.03 | 76 | 1005.9 |
| 20260505231445 | 19 | 206 | 0.0 | 0.0 | 0.00 | 0.03 | 0.03 | 75 | 1005.8 |
| 20260505230943 | 19 | 205 | 0.0 | 1.6 | 0.00 | 0.03 | 0.03 | 75 | 1006.0 |
| 20260505230441 | 19 | 207 | 0.0 | 0.0 | 0.00 | 0.03 | 0.03 | 74 | 1006.1 |
| 20260505225937 | 19 | 207 | 0.0 | 0.0 | 0.00 | 0.03 | 0.03 | 73 | 1006.2 |
| 20260505225434 | 19 | 206 | 0.0 | 0.0 | 0.00 | 0.03 | 0.03 | 72 | 1006.3 |
| 20260505224930 | 19 | 209 | 1.6 | 1.6 | 0.00 | 0.03 | 0.03 | 72 | 1006.2 |
| 20260505224427 | 19 | 222 | 0.0 | 0.0 | 0.00 | 0.03 | 0.03 | 72 | 1006.2 |
| 20260505223924 | 19 | 221 | 0.0 | 0.0 | 0.00 | 0.03 | 0.03 | 72 | 1006.1 |
| 20260505223421 | 19 | 223 | 0.0 | 1.6 | 0.00 | 0.03 | 0.03 | 72 | 1005.9 |
| 20260505222918 | 19 | 224 | 3.2 | 3.2 | 0.00 | 0.03 | 0.03 | 73 | 1006.0 |
| 20260505222414 | 18 | 242 | 1.6 | 1.6 | 0.00 | 0.03 | 0.03 | 74 | 1006.2 |
| 20260505221910 | 18 | 223 | 0.0 | 0.0 | 0.00 | 0.03 | 0.03 | 76 | 1006.3 |
| 20260505221408 | 18 | 251 | 1.6 | 1.6 | 0.00 | 0.03 | 0.03 | 76 | 1006.4 |
| 20260505220904 | 18 | 222 | 0.0 | 0.0 | 0.00 | 0.03 | 0.03 | 77 | 1006.3 |
| 20260505220401 | 18 | 34 | 1.6 | 3.2 | 0.13 | 0.03 | 0.03 | 75 | 1006.5 |
| 20260505215859 | 19 | 355 | 4.8 | 8.0 | 0.13 | 0.03 | 0.03 | 74 | 1006.6 |
| 20260505215357 | 20 | 214 | 1.6 | 1.6 | 0.00 | 0.00 | 0.00 | 72 | 1006.3 |
| 20260505214855 | 20 | 221 | 1.6 | 1.6 | 0.00 | 0.00 | 0.00 | 68 | 1006.5 |
| 20260505214352 | 21 | 336 | 6.4 | 9.7 | 0.00 | 0.00 | 0.00 | 63 | 1006.2 |
| 20260505213849 | 21 | 212 | 1.6 | 3.2 | 0.00 | 0.00 | 0.00 | 59 | 1006.0 |
| 20260505213347 | 22 | 231 | 1.6 | 1.6 | 0.00 | 0.00 | 0.00 | 56 | 1005.8 |
| 20260505212843 | 22 | 322 | 8.0 | 9.7 | 0.00 | 0.00 | 0.00 | 54 | 1005.5 |
| 20260505212340 | 23 | 2 | 4.8 | 4.8 | 0.00 | 0.00 | 0.00 | 53 | 1004.9 |